Time;durP1;ratioP1;P1;durP2;ratioP2;P2;SDS_P1;SDS_P2;PMS_P1;PMS_P2;Temp;Humidity;BMP_temperature;BMP_pressure;BME280_temperature;BME280_humidity;BME280_pressure;Samples;Min_cycle;Max_cycle;Signal;HPM_P1;HPM_P2
2022/03/24 00:01:03;;;;;;;;;;;;;;;7.31;85.87;103109.19;5007525;28;19918;-77
2022/03/24 00:03:29;;;;;;;;;;;;;;;7.27;85.00;103110.03;5012587;28;20408;-78
2022/03/24 00:05:54;;;;;;;;;;;;;;;7.30;86.16;103109.16;5009962;28;20173;-78
2022/03/24 00:08:20;;;;;;;;;;;;;;;7.28;86.16;103109.19;5009929;28;19936;-77
2022/03/24 00:10:45;;;;;;;;;;;;;;;7.25;86.63;103104.81;5009394;28;20521;-74
2022/03/24 00:13:11;;;;;;;;;;;;;;;7.23;86.95;103105.66;5005487;28;20536;-76
2022/03/24 00:15:36;;;;;;;;;;;;;;;7.21;86.59;103103.03;5023744;28;19917;-76
2022/03/24 00:18:01;;;;;;;;;;;;;;;7.18;87.40;103097.78;5006471;28;19922;-78
2022/03/24 00:20:28;;;;;;;;;;;;;;;7.11;87.14;103106.50;5010749;28;20071;-72
2022/03/24 00:22:53;;;;;;;;;;;;;;;7.06;87.04;103097.75;5008056;28;19925;-75
2022/03/24 00:25:19;;;;;;;;;;;;;;;7.02;87.14;103103.84;5007873;28;19979;-75
2022/03/24 00:27:44;;;;;;;;;;;;;;;6.97;86.76;103102.06;5007860;28;20000;-77
2022/03/24 00:30:10;;;;;;;;;;;;;;;6.94;86.79;103102.06;5007466;28;19933;-75
2022/03/24 00:32:36;;;;;;;;;;;;;;;6.89;87.16;103095.94;5009071;28;19928;-75
2022/03/24 00:35:02;;;;;;;;;;;;;;;6.89;87.21;103095.94;5007187;28;19940;-75
2022/03/24 00:37:27;;;;;;;;;;;;;;;6.87;86.61;103095.06;5010012;28;19921;-76
2022/03/24 00:39:52;;;;;;;;;;;;;;;6.83;86.79;103093.31;5011144;28;20497;-74
2022/03/24 00:42:21;;;;;;;;;;;;;;;6.85;87.49;103091.53;5006361;28;20408;-76
2022/03/24 00:44:46;;;;;;;;;;;;;;;6.80;86.60;103085.44;5009725;28;19922;-80
2022/03/24 00:47:13;;;;;;;;;;;;;;;6.77;86.51;103091.53;5012227;28;19940;-81
2022/03/24 00:49:39;;;;;;;;;;;;;;;6.76;87.22;103094.13;5011238;28;19917;-77
2022/03/24 00:52:05;;;;;;;;;;;;;;;6.72;87.13;103097.59;5011205;28;20274;-79
2022/03/24 00:54:30;;;;;;;;;;;;;;;6.70;87.08;103094.09;5013979;28;20282;-79
2022/03/24 00:56:55;;;;;;;;;;;;;;;6.69;86.63;103092.34;5009676;28;20372;-80
2022/03/24 00:59:22;;;;;;;;;;;;;;;6.67;87.99;103088.84;5003488;28;19999;-77
2022/03/24 01:01:47;;;;;;;;;;;;;;;6.65;87.71;103091.47;5011454;28;19921;-78
2022/03/24 01:04:16;;;;;;;;;;;;;;;6.69;87.94;103089.72;5011553;28;19917;-81
2022/03/24 01:06:41;;;;;;;;;;;;;;;6.73;88.43;103092.38;5014673;28;20372;-79
2022/03/24 01:09:07;;;;;;;;;;;;;;;6.67;87.91;103088.84;5010627;28;19932;-78
2022/03/24 01:11:32;;;;;;;;;;;;;;;6.67;88.09;103087.09;5032584;28;19917;-80
2022/03/24 01:13:58;;;;;;;;;;;;;;;6.69;88.02;103087.97;5011117;28;20404;-81
2022/03/24 01:16:24;;;;;;;;;;;;;;;6.71;88.22;103088.00;5011583;28;19968;-78
2022/03/24 01:18:50;;;;;;;;;;;;;;;6.69;88.20;103081.91;5013447;28;19917;-78
2022/03/24 01:21:16;;;;;;;;;;;;;;;6.69;88.24;103082.75;5012549;28;20004;-79
2022/03/24 01:23:43;;;;;;;;;;;;;;;6.65;88.36;103078.41;5012155;28;20016;-78
2022/03/24 01:26:09;;;;;;;;;;;;;;;6.61;88.43;103077.50;5010980;28;19931;-78
2022/03/24 01:28:35;;;;;;;;;;;;;;;6.60;89.06;103075.75;5012273;28;19921;-78
2022/03/24 01:31:00;;;;;;;;;;;;;;;6.63;88.97;103075.75;5011188;28;20368;-77
2022/03/24 01:33:28;;;;;;;;;;;;;;;6.72;89.53;103076.69;5011866;28;19922;-76
2022/03/24 01:35:53;;;;;;;;;;;;;;;6.74;89.63;103074.94;5010391;28;20066;-77
2022/03/24 01:38:19;;;;;;;;;;;;;;;6.71;89.52;103069.72;5026560;28;20004;-76
2022/03/24 01:40:45;;;;;;;;;;;;;;;6.72;89.45;103074.09;5009849;28;20000;-76
2022/03/24 01:43:11;;;;;;;;;;;;;;;6.73;90.02;103068.84;5010182;28;20347;-76
2022/03/24 01:45:37;;;;;;;;;;;;;;;6.63;89.97;103065.31;5011650;28;19918;-77
2022/03/24 01:48:03;;;;;;;;;;;;;;;6.59;90.07;103063.56;5009250;28;19917;-77
2022/03/24 01:50:29;;;;;;;;;;;;;;;6.48;89.89;103060.88;5010736;28;19941;-76
2022/03/24 01:52:54;;;;;;;;;;;;;;;6.42;89.73;103054.72;5008494;28;19922;-76
2022/03/24 01:55:19;;;;;;;;;;;;;;;6.35;90.27;103056.41;5008554;28;19936;-76
2022/03/24 01:57:45;;;;;;;;;;;;;;;6.36;90.62;103046.88;5010844;28;20008;-75
2022/03/24 02:00:12;;;;;;;;;;;;;;;6.31;90.64;103052.91;5008958;28;19917;-75
2022/03/24 02:02:41;;;;;;;;;;;;;;;6.25;90.02;103045.06;5027199;28;19936;-78
2022/03/24 02:05:07;;;;;;;;;;;;;;;6.18;90.59;103040.63;4989357;28;20772;-76
2022/03/24 02:07:32;;;;;;;;;;;;;;;6.18;90.47;103043.25;4991652;28;19917;-77
2022/03/24 02:09:59;;;;;;;;;;;;;;;6.15;89.92;103048.47;4990035;28;19972;-77
2022/03/24 02:12:25;;;;;;;;;;;;;;;6.17;90.79;103046.75;4988956;28;19949;-78
2022/03/24 02:14:52;;;;;;;;;;;;;;;6.13;90.63;103043.22;5003550;28;19922;-80
2022/03/24 02:17:19;;;;;;;;;;;;;;;6.17;91.23;103044.13;5010003;28;19925;-79
2022/03/24 02:19:45;;;;;;;;;;;;;;;6.25;91.93;103039.84;5011952;28;19964;-76
2022/03/24 02:22:12;;;;;;;;;;;;;;;6.30;92.23;103039.88;5008186;28;19918;-78
2022/03/24 02:24:37;;;;;;;;;;;;;;;6.32;91.67;103041.63;5012454;28;19921;-78
2022/03/24 02:27:03;;;;;;;;;;;;;;;6.27;92.01;103038.13;5009469;28;20359;-79
2022/03/24 02:29:28;;;;;;;;;;;;;;;6.20;90.92;103041.53;5011755;28;19917;-80
2022/03/24 02:31:53;;;;;;;;;;;;;;;6.15;91.54;103032.81;5009652;28;20349;-80
2022/03/24 02:37:02;;;;;;;;;;;;;;;6.06;91.65;103031.00;5010114;28;20377;-80
2022/03/24 02:39:28;;;;;;;;;;;;;;;6.00;91.02;103039.66;5012481;28;19948;-79
2022/03/24 02:41:54;;;;;;;;;;;;;;;5.96;90.78;103035.22;5012517;28;19984;-79
2022/03/24 02:44:29;;;;;;;;;;;;;;;5.93;91.32;103035.22;5010562;28;19924;-81
2022/03/24 02:46:58;;;;;;;;;;;;;;;5.92;90.54;103035.19;5011320;28;19917;-80
2022/03/24 02:49:25;;;;;;;;;;;;;;;5.88;90.45;103034.28;5008412;28;19918;-81
2022/03/24 02:51:51;;;;;;;;;;;;;;;5.82;90.80;103027.28;4992006;28;19917;-81
2022/03/24 02:54:17;;;;;;;;;;;;;;;5.79;90.99;103035.06;5009249;28;19921;-79
2022/03/24 02:56:42;;;;;;;;;;;;;;;5.76;90.55;103036.78;5009755;28;19918;-79
2022/03/24 02:59:08;;;;;;;;;;;;;;;5.71;90.75;103034.13;5009541;28;19924;-80
2022/03/24 03:01:33;;;;;;;;;;;;;;;5.67;91.08;103027.16;5009455;28;19963;-81
2022/03/24 03:03:59;;;;;;;;;;;;;;;5.69;91.55;103031.53;5025003;28;19924;-80
2022/03/24 03:06:24;;;;;;;;;;;;;;;5.68;91.44;103029.78;5008105;28;19917;-78
2022/03/24 03:08:50;;;;;;;;;;;;;;;5.76;92.39;103036.78;5010187;28;19969;-77
2022/03/24 03:11:16;;;;;;;;;;;;;;;5.75;91.69;103033.31;5009233;28;20427;-77
2022/03/24 03:13:43;;;;;;;;;;;;;;;5.71;92.15;103032.44;5008314;28;19928;-77
2022/03/24 03:16:09;;;;;;;;;;;;;;;5.70;91.96;103030.69;5010156;28;19917;-78
2022/03/24 03:18:34;;;;;;;;;;;;;;;5.69;92.01;103033.25;5009116;28;19918;-76
2022/03/24 03:20:59;;;;;;;;;;;;;;;5.66;92.71;103028.88;5013518;28;20258;-77
2022/03/24 03:23:25;;;;;;;;;;;;;;;5.62;92.29;103034.06;5012562;28;20004;-78
2022/03/24 03:25:50;;;;;;;;;;;;;;;5.59;92.26;103032.31;5013160;28;20016;-78
2022/03/24 03:28:16;;;;;;;;;;;;;;;5.56;92.33;103029.66;5012477;28;19975;-77
2022/03/24 03:30:43;;;;;;;;;;;;;;;5.53;92.49;103029.63;5012212;28;19926;-79
2022/03/24 03:33:09;;;;;;;;;;;;;;;5.49;91.89;103031.34;5011878;28;20407;-78
2022/03/24 03:35:34;;;;;;;;;;;;;;;5.46;92.49;103033.03;5012238;28;19961;-78
2022/03/24 03:37:59;;;;;;;;;;;;;;;5.42;92.29;103032.13;5012882;28;19921;-79
2022/03/24 03:40:25;;;;;;;;;;;;;;;5.42;92.89;103035.59;5011584;28;20283;-78
2022/03/24 03:42:51;;;;;;;;;;;;;;;5.38;92.26;103033.84;5014171;28;20048;-77
2022/03/24 03:45:17;;;;;;;;;;;;;;;5.36;92.07;103038.16;5012424;28;20885;-79
2022/03/24 03:47:42;;;;;;;;;;;;;;;5.33;92.78;103025.09;5014004;28;19955;-78
2022/03/24 03:50:07;;;;;;;;;;;;;;;5.32;92.18;103032.91;5014464;28;20340;-78
2022/03/24 03:52:33;;;;;;;;;;;;;;;5.25;92.03;103037.16;5014505;28;20385;-78
2022/03/24 03:54:58;;;;;;;;;;;;;;;5.22;92.34;103038.03;5015246;28;19943;-78
2022/03/24 03:57:23;;;;;;;;;;;;;;;5.17;92.65;103028.41;5012184;28;19971;-81
2022/03/24 03:59:49;;;;;;;;;;;;;;;5.14;92.31;103031.81;5013521;28;19944;-80
2022/03/24 04:02:14;;;;;;;;;;;;;;;5.13;93.19;103026.59;5012763;28;20301;-79
2022/03/24 04:04:39;;;;;;;;;;;;;;;5.10;92.72;103024.84;5012290;28;19976;-80
2022/03/24 04:07:05;;;;;;;;;;;;;;;5.06;92.83;103028.25;5012475;28;19917;-78
2022/03/24 04:09:30;;;;;;;;;;;;;;;5.04;93.60;103022.16;5011679;28;19917;-79
2022/03/24 04:11:55;;;;;;;;;;;;;;;5.05;93.29;103027.41;5013451;28;19924;-80
2022/03/24 04:14:21;;;;;;;;;;;;;;;5.03;93.91;103026.50;5011393;28;19937;-81
2022/03/24 04:16:46;;;;;;;;;;;;;;;4.99;93.63;103024.69;5013014;28;19921;-84
2022/03/24 04:19:12;;;;;;;;;;;;;;;5.03;93.66;103020.41;5012401;28;19943;-83
2022/03/24 04:21:38;;;;;;;;;;;;;;;5.04;93.86;103020.44;5026764;28;19918;-84
2022/03/24 04:24:03;;;;;;;;;;;;;;;4.99;94.21;103024.69;5012511;28;19937;-86
2022/03/24 04:26:29;;;;;;;;;;;;;;;4.97;94.42;103030.75;5013113;28;19925;-85
2022/03/24 04:28:54;;;;;;;;;;;;;;;4.95;94.18;103017.72;5033370;28;19926;-85
2022/03/24 04:31:22;;;;;;;;;;;;;;;4.91;94.54;103026.34;5011344;28;20027;-85
2022/03/24 04:33:48;;;;;;;;;;;;;;;4.88;94.24;103021.09;5011192;28;20032;-85
2022/03/24 04:36:13;;;;;;;;;;;;;;;4.86;94.20;103023.69;5013021;28;20456;-85
2022/03/24 04:38:39;;;;;;;;;;;;;;;4.87;93.78;103027.16;4994061;28;19918;-85
2022/03/24 04:41:05;;;;;;;;;;;;;;;4.81;93.61;103020.13;5009551;28;19928;-85
2022/03/24 04:43:31;;;;;;;;;;;;;;;4.79;94.20;103024.47;5012734;28;20577;-86
2022/03/24 04:45:56;;;;;;;;;;;;;;;4.86;95.26;103028.00;5014948;28;19945;-86
2022/03/24 04:48:22;;;;;;;;;;;;;;;4.87;95.28;103029.75;5028351;28;19922;-84
2022/03/24 04:50:47;;;;;;;;;;;;;;;4.98;96.04;103037.72;5012366;28;19924;-85
2022/03/24 04:53:15;;;;;;;;;;;;;;;4.93;95.87;103027.25;5012790;28;20019;-85
2022/03/24 04:55:42;;;;;;;;;;;;;;;4.94;96.31;103034.22;5011621;28;19918;-79
2022/03/24 04:58:08;;;;;;;;;;;;;;;4.94;96.48;103035.06;5010859;28;19925;-81
2022/03/24 05:00:33;;;;;;;;;;;;;;;4.91;96.12;103037.63;5009940;28;19925;-81
2022/03/24 05:02:59;;;;;;;;;;;;;;;4.98;96.20;103033.38;5010871;28;19925;-80
2022/03/24 05:05:24;;;;;;;;;;;;;;;4.90;96.72;103027.19;5009899;28;19945;-77
2022/03/24 05:07:50;;;;;;;;;;;;;;;4.94;96.40;103032.47;4993832;28;19921;-82
2022/03/24 05:10:16;;;;;;;;;;;;;;;4.92;96.65;103038.53;5009108;28;19925;-82
2022/03/24 05:12:41;;;;;;;;;;;;;;;4.91;96.75;103035.03;5009115;28;20079;-82
2022/03/24 05:15:08;;;;;;;;;;;;;;;5.03;97.80;103038.63;5008533;28;20423;-81
2022/03/24 05:17:33;;;;;;;;;;;;;;;5.02;97.92;103040.38;5011014;28;20377;-84
2022/03/24 05:19:59;;;;;;;;;;;;;;;5.22;98.60;103039.72;5011637;28;19918;-81
2022/03/24 05:22:24;;;;;;;;;;;;;;;5.20;98.56;103038.84;5011385;28;20307;-83
2022/03/24 05:24:49;;;;;;;;;;;;;;;5.28;99.29;103042.44;5010176;28;19918;-83
2022/03/24 05:27:14;;;;;;;;;;;;;;;5.21;99.39;103031.06;5010823;28;19921;-80
2022/03/24 05:29:40;;;;;;;;;;;;;;;5.15;99.23;103040.53;4993063;28;19917;-81
2022/03/24 05:32:06;;;;;;;;;;;;;;;5.17;99.44;103034.47;5007648;28;19933;-80
2022/03/24 05:34:31;;;;;;;;;;;;;;;5.22;100.00;103034.53;5010297;28;19925;-79
2022/03/24 05:36:57;;;;;;;;;;;;;;;5.19;99.82;103042.28;5013002;28;19918;-84
2022/03/24 05:39:23;;;;;;;;;;;;;;;5.20;99.75;103039.72;5011060;28;19918;-86
2022/03/24 05:41:48;;;;;;;;;;;;;;;5.16;99.50;103044.88;5010282;28;19924;-83
2022/03/24 05:44:13;;;;;;;;;;;;;;;5.16;99.86;103043.16;5010593;28;19927;-81
2022/03/24 05:46:40;;;;;;;;;;;;;;;5.16;99.59;103045.75;5010176;28;19917;-78
2022/03/24 05:49:06;;;;;;;;;;;;;;;5.18;99.62;103046.66;5011311;28;19925;-78
2022/03/24 05:51:32;;;;;;;;;;;;;;;5.24;99.94;103046.69;5010437;28;19918;-78
2022/03/24 05:53:57;;;;;;;;;;;;;;;5.27;99.65;103056.31;5011184;28;20008;-78
2022/03/24 05:56:22;;;;;;;;;;;;;;;5.29;99.60;103054.59;5009791;28;19924;-77
2022/03/24 05:58:48;;;;;;;;;;;;;;;5.32;99.36;103052.00;5008467;28;20430;-77
2022/03/24 06:01:15;;;;;;;;;;;;;;;5.38;99.42;103054.69;4991408;28;20137;-77
2022/03/24 06:03:42;;;;;;;;;;;;;;;5.47;99.24;103051.28;5008731;28;19925;-78
2022/03/24 06:06:08;;;;;;;;;;;;;;;5.50;99.47;103053.09;5010359;28;19932;-79
2022/03/24 06:08:34;;;;;;;;;;;;;;;5.54;99.18;103049.63;4993135;28;19921;-78
2022/03/24 06:11:00;;;;;;;;;;;;;;;5.56;98.47;103055.75;5013299;28;19957;-78
2022/03/24 06:13:26;;;;;;;;;;;;;;;5.54;97.50;103041.81;5010162;28;19972;-78
2022/03/24 06:15:51;;;;;;;;;;;;;;;5.57;98.08;103034.88;5009652;28;19921;-78
2022/03/24 06:18:17;;;;;;;;;;;;;;;5.63;97.93;103034.06;5017572;28;19921;-79
2022/03/24 06:20:44;;;;;;;;;;;;;;;5.68;97.48;103040.22;5007399;28;19956;-78
2022/03/24 06:23:09;;;;;;;;;;;;;;;5.72;97.17;103039.41;5010720;28;19971;-77
2022/03/24 06:25:37;;;;;;;;;;;;;;;5.77;97.14;103036.81;4988498;28;20416;-79
2022/03/24 06:28:04;;;;;;;;;;;;;;;5.84;96.98;103045.59;5004391;28;19929;-78
2022/03/24 06:30:29;;;;;;;;;;;;;;;5.96;96.61;103048.28;5007627;28;19929;-78
2022/03/24 06:32:56;;;;;;;;;;;;;;;6.10;96.57;103047.53;5009027;28;19921;-79
2022/03/24 06:35:21;;;;;;;;;;;;;;;6.20;96.57;103051.97;5008875;28;20016;-82
2022/03/24 06:37:48;;;;;;;;;;;;;;;6.33;96.14;103045.13;5008549;28;19992;-80
2022/03/24 06:40:14;;;;;;;;;;;;;;;6.45;95.05;103052.16;5008025;28;19929;-82
2022/03/24 06:42:39;;;;;;;;;;;;;;;6.63;95.49;103054.00;5008777;28;20328;-81
2022/03/24 06:45:06;;;;;;;;;;;;;;;6.73;94.03;103050.56;5010131;28;19964;-84
2022/03/24 06:47:32;;;;;;;;;;;;;;;6.80;92.70;103057.56;5012317;28;19928;-82
2022/03/24 06:49:57;;;;;;;;;;;;;;;6.87;91.80;103053.25;5009634;28;19917;-83
2022/03/24 06:52:22;;;;;;;;;;;;;;;6.95;91.84;103043.69;5010802;28;19941;-82
2022/03/24 06:54:48;;;;;;;;;;;;;;;7.14;92.07;103050.72;5009105;28;20352;-82
2022/03/24 06:57:14;;;;;;;;;;;;;;;7.26;91.53;103050.78;5039086;28;19917;-81
2022/03/24 06:59:41;;;;;;;;;;;;;;;7.37;91.12;103053.44;5017722;28;19928;-81
2022/03/24 07:02:07;;;;;;;;;;;;;;;7.49;91.03;103045.63;5029891;28;20004;-79
2022/03/24 07:04:32;;;;;;;;;;;;;;;7.58;90.24;103048.25;5027993;28;19925;-78
2022/03/24 07:06:58;;;;;;;;;;;;;;;7.67;90.03;103043.88;5029520;28;19917;-81
2022/03/24 07:09:23;;;;;;;;;;;;;;;7.81;89.85;103043.88;5019277;28;19940;-80
2022/03/24 07:11:48;;;;;;;;;;;;;;;7.95;87.90;103039.53;5009097;28;20016;-79
2022/03/24 07:14:14;;;;;;;;;;;;;;;7.78;87.07;103036.03;5008581;28;20380;-80
2022/03/24 07:16:39;;;;;;;;;;;;;;;7.83;87.17;103032.53;5008609;28;19979;-80
2022/03/24 07:19:06;;;;;;;;;;;;;;;7.96;86.55;103038.66;5008820;28;19932;-79
2022/03/24 07:21:32;;;;;;;;;;;;;;;8.20;86.10;103035.16;4996490;28;20405;-75
2022/03/24 07:23:57;;;;;;;;;;;;;;;8.41;85.51;103038.59;4999029;28;20032;-78
2022/03/24 07:26:23;;;;;;;;;;;;;;;8.49;85.53;103042.09;5006833;28;20380;-78
2022/03/24 07:28:48;;;;;;;;;;;;;;;8.49;84.93;103036.84;5006983;28;20284;-79
2022/03/24 07:31:16;;;;;;;;;;;;;;;8.63;84.19;103033.34;5005651;28;19936;-76
2022/03/24 07:33:42;;;;;;;;;;;;;;;8.80;83.73;103038.50;5006068;28;19922;-76
2022/03/24 07:36:07;;;;;;;;;;;;;;;8.98;83.75;103032.34;5005757;28;19926;-78
2022/03/24 07:38:33;;;;;;;;;;;;;;;9.02;81.76;103031.44;5008565;28;19925;-78
2022/03/24 07:40:58;;;;;;;;;;;;;;;9.03;80.58;103027.94;5008325;28;20000;-77
2022/03/24 07:43:24;;;;;;;;;;;;;;;9.13;80.08;103023.50;5008585;28;20076;-76
2022/03/24 07:45:49;;;;;;;;;;;;;;;9.27;79.17;103018.19;4995785;28;19929;-76
2022/03/24 07:48:17;;;;;;;;;;;;;;;9.40;77.89;103011.13;5009165;28;19918;-77
2022/03/24 07:50:44;;;;;;;;;;;;;;;9.51;76.92;103006.66;5008869;28;19917;-74
2022/03/24 07:53:13;;;;;;;;;;;;;;;9.67;75.69;103011.78;5009340;28;20316;-75
2022/03/24 07:55:40;;;;;;;;;;;;;;;9.90;75.34;102999.34;5010031;28;19964;-75
2022/03/24 07:58:05;;;;;;;;;;;;;;;10.05;75.01;103006.19;5009110;28;19928;-76
2022/03/24 08:00:31;;;;;;;;;;;;;;;10.41;73.44;102991.84;5010516;28;19922;-78
2022/03/24 08:02:57;;;;;;;;;;;;;;;10.58;73.31;102999.56;5009525;28;20293;-85
2022/03/24 08:05:22;;;;;;;;;;;;;;;10.64;73.43;103000.34;5008901;28;19921;-82
2022/03/24 08:07:47;;;;;;;;;;;;;;;10.49;71.32;102990.91;4995704;28;19925;-79
2022/03/24 08:10:13;;;;;;;;;;;;;;;10.61;70.69;102997.75;5012437;28;19921;-82
2022/03/24 08:12:38;;;;;;;;;;;;;;;10.65;70.65;102995.94;5014393;28;20000;-82
2022/03/24 08:15:04;;;;;;;;;;;;;;;10.71;70.35;102995.88;5013720;28;20007;-78
2022/03/24 08:17:29;;;;;;;;;;;;;;;10.71;70.66;102998.53;5010964;28;19975;-78
2022/03/24 08:19:54;;;;;;;;;;;;;;;10.71;70.09;102995.88;5011794;28;19975;-82
2022/03/24 08:22:20;;;;;;;;;;;;;;;10.83;70.19;103008.00;5013737;28;19936;-79
2022/03/24 08:24:45;;;;;;;;;;;;;;;10.85;70.84;103008.84;5009270;28;19972;-80
2022/03/24 08:27:10;;;;;;;;;;;;;;;10.86;70.64;103004.47;5010752;28;19925;-81
2022/03/24 08:29:35;;;;;;;;;;;;;;;11.07;70.16;103000.66;5012836;28;19956;-81
2022/03/24 08:32:01;;;;;;;;;;;;;;;11.13;69.56;102993.56;5010885;28;20448;-84
2022/03/24 08:34:26;;;;;;;;;;;;;;;11.80;69.50;102991.66;5010344;28;19929;-81
2022/03/24 08:36:52;;;;;;;;;;;;;;;13.29;65.22;102971.91;5006765;28;19953;-82
2022/03/24 08:39:17;;;;;;;;;;;;;;;14.86;59.34;102943.94;5009776;28;20069;-81
2022/03/24 08:41:42;;;;;;;;;;;;;;;16.36;53.20;102925.59;5010630;28;19948;-81
2022/03/24 08:44:08;;;;;;;;;;;;;;;18.82;47.36;102911.56;4993636;28;19917;-80
2022/03/24 08:46:33;;;;;;;;;;;;;;;19.64;41.73;103058.63;5011833;28;19925;-81
2022/03/24 08:48:59;;;;;;;;;;;;;;;20.36;40.93;103061.22;5009690;28;19918;-81
2022/03/24 08:51:24;;;;;;;;;;;;;;;20.22;39.80;103068.16;5009198;28;19925;-78
2022/03/24 08:53:49;;;;;;;;;;;;;;;22.00;37.26;103065.44;5006991;28;20317;-80
2022/03/24 08:56:15;;;;;;;;;;;;;;;21.28;36.72;103079.38;4991861;28;20008;-81
2022/03/24 08:58:40;;;;;;;;;;;;;;;21.45;35.14;103075.75;5008220;28;19925;-79
2022/03/24 09:01:06;;;;;;;;;;;;;;;21.38;34.90;103077.06;5008814;28;19917;-79
2022/03/24 09:03:31;;;;;;;;;;;;;;;22.54;32.67;103072.03;5009599;28;19917;-79
2022/03/24 09:05:56;;;;;;;;;;;;;;;22.91;33.29;103079.56;5023884;28;19989;-79
2022/03/24 09:08:21;;;;;;;;;;;;;;;23.98;31.19;103081.50;5009478;28;20007;-79
2022/03/24 09:10:50;;;;;;;;;;;;;;;23.57;29.55;103090.50;5008280;28;19929;-80
2022/03/24 09:13:15;;;;;;;;;;;;;;;23.26;29.17;103087.19;5010112;28;19925;-80
2022/03/24 09:15:43;;;;;;;;;;;;;;;24.12;27.76;103082.38;5022640;28;19921;-79
2022/03/24 09:18:10;;;;;;;;;;;;;;;23.75;27.62;103083.03;5029095;28;19925;-79
2022/03/24 09:20:35;;;;;;;;;;;;;;;24.44;27.16;103090.88;5031302;28;19943;-78
2022/03/24 09:23:00;;;;;;;;;;;;;;;25.01;26.37;103089.53;5011736;28;19921;-77
2022/03/24 09:25:25;;;;;;;;;;;;;;;24.68;26.04;103084.75;5009136;28;19970;-80
2022/03/24 09:27:51;;;;;;;;;;;;;;;25.05;25.74;103090.16;4991205;28;19926;-80
2022/03/24 09:30:18;;;;;;;;;;;;;;;25.69;25.53;103097.09;5009426;28;20330;-79
2022/03/24 09:32:45;;;;;;;;;;;;;;;24.83;25.13;103096.25;4990891;28;19925;-79
2022/03/24 09:35:11;;;;;;;;;;;;;;;24.03;26.40;103103.53;5007183;28;20294;-79
2022/03/24 09:37:36;;;;;;;;;;;;;;;24.17;26.54;103105.28;4997252;28;19944;-81
2022/03/24 09:40:02;;;;;;;;;;;;;;;23.89;26.64;103109.81;5007445;28;19960;-79
2022/03/24 09:42:28;;;;;;;;;;;;;;;23.49;28.35;103111.63;5014692;28;20012;-80
2022/03/24 09:44:56;;;;;;;;;;;;;;;23.82;28.49;103108.50;5004127;28;20528;-79
2022/03/24 09:47:22;;;;;;;;;;;;;;;24.83;26.85;103094.41;5007585;28;20012;-79
2022/03/24 09:49:47;;;;;;;;;;;;;;;25.30;25.54;103099.09;5008701;28;20032;-78
2022/03/24 09:52:13;;;;;;;;;;;;;;;25.07;24.75;103096.28;5008197;28;19932;-81
2022/03/24 09:54:39;;;;;;;;;;;;;;;23.91;26.78;103102.53;5008928;28;19976;-81
2022/03/24 09:57:05;;;;;;;;;;;;;;;23.30;26.98;103097.59;4993889;28;20408;-79
2022/03/24 09:59:31;;;;;;;;;;;;;;;23.54;27.27;103104.13;4990903;28;19949;-80
2022/03/24 10:01:56;;;;;;;;;;;;;;;24.22;27.10;103099.56;5005613;28;19948;-79
2022/03/24 10:04:21;;;;;;;;;;;;;;;24.18;26.32;103092.72;5007779;28;20400;-80
2022/03/24 10:07:02;;;;;;;;;;;;;;;24.47;26.14;103088.00;5007871;28;19929;-80
2022/03/24 10:09:44;;;;;;;;;;;;;;;24.73;25.26;103081.75;5008225;28;19928;-78
2022/03/24 10:12:19;;;;;;;;;;;;;;;25.29;25.97;103095.56;5007988;28;19972;-78
2022/03/24 10:14:45;;;;;;;;;;;;;;;24.85;26.72;103092.47;5009789;28;19922;-78
2022/03/24 10:17:11;;;;;;;;;;;;;;;24.14;27.34;103096.56;5007492;28;19951;-79
2022/03/24 10:19:37;;;;;;;;;;;;;;;24.26;27.36;103094.84;5010804;28;20012;-78
2022/03/24 10:22:10;;;;;;;;;;;;;;;23.51;29.17;103101.66;5008175;28;19928;-82
2022/03/24 10:24:43;;;;;;;;;;;;;;;23.79;29.01;103098.00;5011369;28;19921;-81
2022/03/24 10:27:11;;;;;;;;;;;;;;;24.07;28.38;103085.38;5008277;28;19967;-83
2022/03/24 10:29:37;;;;;;;;;;;;;;;24.72;26.58;103080.03;4988007;28;19922;-81
2022/03/24 10:32:04;;;;;;;;;;;;;;;23.82;28.32;103091.56;4989226;28;20404;-82
2022/03/24 10:34:32;;;;;;;;;;;;;;;22.91;29.13;103095.63;4992489;28;19926;-82
2022/03/24 10:36:58;;;;;;;;;;;;;;;22.33;30.19;103092.94;5009808;28;19917;-81
2022/03/24 10:39:24;;;;;;;;;;;;;;;23.38;29.23;103088.19;5009336;28;20444;-81
2022/03/24 10:41:49;;;;;;;;;;;;;;;23.49;26.58;103077.59;5010330;28;19924;-82
2022/03/24 10:44:14;;;;;;;;;;;;;;;23.52;27.76;103080.09;5008778;28;19945;-82
2022/03/24 10:46:42;;;;;;;;;;;;;;;23.58;29.11;103093.09;5011111;28;19921;-81
2022/03/24 10:49:14;;;;;;;;;;;;;;;21.95;30.22;103091.63;5008968;28;19930;-82
2022/03/24 10:51:42;;;;;;;;;;;;;;;21.36;31.13;103096.78;5025029;28;19952;-83
2022/03/24 10:54:10;;;;;;;;;;;;;;;21.43;30.74;103099.03;5008413;28;19932;-81
2022/03/24 10:56:39;;;;;;;;;;;;;;;20.66;32.04;103100.59;5010961;28;19921;-81
2022/03/24 10:59:05;;;;;;;;;;;;;;;20.44;31.10;103101.72;5008748;28;20299;-83
2022/03/24 11:01:32;;;;;;;;;;;;;;;19.58;31.34;103091.81;5009126;28;19917;-82
2022/03/24 11:03:57;;;;;;;;;;;;;;;19.36;32.49;103094.63;5008368;28;20426;-82
2022/03/24 11:06:22;;;;;;;;;;;;;;;19.00;33.17;103101.66;5006781;28;20012;-83
2022/03/24 11:08:52;;;;;;;;;;;;;;;19.40;32.06;103095.38;4986969;28;19918;-82
2022/03/24 11:11:19;;;;;;;;;;;;;;;19.33;33.04;103094.81;5004136;28;20765;-83
2022/03/24 11:13:45;;;;;;;;;;;;;;;19.06;32.85;103102.31;5008752;28;20191;-83
2022/03/24 11:16:11;;;;;;;;;;;;;;;18.58;34.14;103094.66;5006849;28;19918;-81
2022/03/24 11:18:37;;;;;;;;;;;;;;;18.38;35.16;103099.06;5009767;28;19979;-81
2022/03/24 11:21:06;;;;;;;;;;;;;;;17.92;36.13;103101.00;5006895;28;19924;-81
2022/03/24 11:23:35;;;;;;;;;;;;;;;18.14;36.13;103089.47;5001079;28;20001;-82
2022/03/24 11:26:02;;;;;;;;;;;;;;;17.61;36.88;103100.47;5014697;28;19918;-80
2022/03/24 11:28:29;;;;;;;;;;;;;;;17.83;36.61;103096.94;5007687;28;19952;-80
2022/03/24 11:30:54;;;;;;;;;;;;;;;17.89;37.24;103093.16;5008122;28;19979;-80
2022/03/24 11:33:20;;;;;;;;;;;;;;;17.94;37.34;103093.84;5007581;28;20471;-80
2022/03/24 11:35:49;;;;;;;;;;;;;;;18.12;37.21;103086.03;5009575;28;19921;-80
2022/03/24 11:38:15;;;;;;;;;;;;;;;18.09;37.24;103081.72;5005004;28;19949;-80
2022/03/24 11:40:40;;;;;;;;;;;;;;;17.91;38.19;103080.66;4991964;28;19921;-80
2022/03/24 11:43:08;;;;;;;;;;;;;;;18.05;37.79;103078.31;5010250;28;19948;-80
2022/03/24 11:45:43;;;;;;;;;;;;;;;17.89;38.64;103085.16;5013339;28;20369;-79
2022/03/24 11:48:10;;;;;;;;;;;;;;;17.80;38.69;103085.56;5025073;28;20065;-79
2022/03/24 11:50:35;;;;;;;;;;;;;;;17.47;39.56;103086.88;5009666;28;20376;-79
2022/03/24 11:53:09;;;;;;;;;;;;;;;17.53;39.31;103085.78;5009966;28;19921;-79
2022/03/24 11:55:37;;;;;;;;;;;;;;;17.66;39.27;103083.47;5013109;28;19928;-79
2022/03/24 11:58:03;;;;;;;;;;;;;;;17.69;39.49;103078.88;5006291;28;19928;-80
2022/03/24 12:00:28;;;;;;;;;;;;;;;17.75;39.33;103083.94;4997757;28;19917;-79
2022/03/24 12:02:58;;;;;;;;;;;;;;;17.63;39.74;103071.19;5010979;28;19917;-79
2022/03/24 12:05:43;;;;;;;;;;;;;;;17.93;38.65;103068.16;5009868;28;19917;-79
2022/03/24 12:08:09;;;;;;;;;;;;;;;17.80;39.35;103069.59;5022899;28;19957;-80
2022/03/24 12:10:34;;;;;;;;;;;;;;;17.66;39.52;103079.00;5011126;28;19971;-80
2022/03/24 12:13:01;;;;;;;;;;;;;;;17.74;39.83;103066.28;5009850;28;19961;-82
2022/03/24 12:15:26;;;;;;;;;;;;;;;17.92;39.05;103063.78;5009492;28;20384;-79
2022/03/24 12:18:07;;;;;;;;;;;;;;;17.68;39.87;103069.19;4993293;28;20265;-78
2022/03/24 12:20:48;;;;;;;;;;;;;;;17.55;40.22;103073.25;5009547;28;19976;-79
2022/03/24 12:23:15;;;;;;;;;;;;;;;17.26;41.69;103073.50;5009462;28;19918;-79
2022/03/24 12:25:41;;;;;;;;;;;;;;;17.28;41.96;103068.16;4992734;28;19932;-80
2022/03/24 12:28:12;;;;;;;;;;;;;;;17.46;41.83;103067.41;5010730;28;19921;-81
2022/03/24 12:30:46;;;;;;;;;;;;;;;17.41;42.41;103065.84;5009074;28;19929;-80
2022/03/24 12:33:13;;;;;;;;;;;;;;;17.37;42.36;103059.81;5010419;28;19932;-79
2022/03/24 12:35:39;;;;;;;;;;;;;;;17.27;42.20;103063.75;5024195;28;19983;-79
2022/03/24 12:38:20;;;;;;;;;;;;;;;17.55;42.04;103054.66;5010285;28;20375;-79
2022/03/24 12:41:00;;;;;;;;;;;;;;;17.57;42.73;103052.81;5009006;28;20410;-81